Lufkin, TX (75902)

5:27 AM CST on January 18, 2017 (GMT -0600)
MLRWT2 | | Change Station

Elev 154 ft 31.31 °N, 94.83 °W | Updated 3 hours ago

Rain
Rain
55.0 °F
Feels Like 55.0 °F
N
5.0
Wind Variable Wind from NNW
Gusts 9.0 mph

Today
High -- | Low -- °F
--% Chance of Precip.
Yesterday
High -- | Low -- °F
Precip. -- in
Pressure 30.05 in
Visibility 10.0 miles
Clouds Overcast 400 ft
Dew Point 55 °F
Humidity 99%
Rainfall 0.87 in
Snow Depth Not available.
7:17 AM 5:41 PM
Waning Gibbous, 64% visible
METAR KLFK 181053Z AUTO 07004KT 10SM -RA OVC004 13/13 A3005 RMK AO2 SLP174 P0005 T01280128
Pressure 30.05 in
Visibility 10.0 miles
Clouds Overcast 400 ft
Dew Point 55 °F
Humidity 99%
Rainfall 0.87 in
Snow Depth Not available.
7:17 AM 5:41 PM
Waning Gibbous, 64% visible
METAR KLFK 181053Z AUTO 07004KT 10SM -RA OVC004 13/13 A3005 RMK AO2 SLP174 P0005 T01280128

Get Your Daily Forecast Email!

Thanks for signing up!

Be on the lookout for a verification email in your inbox.

You'll start receiving the daily forecast at 8 AM.

×

10-Day Weather Forecast

Almanac

Astronomy

Jan. 18, 2017 Rise Set
Actual Time
Civil Twilight
Nautical Twilight
Astronomical Twilight
Moon
Length of Visible Light
Length of Day
Tomorrow will be .
, % of the Moon is Illuminated

Today's Extremes

State Highs State Lows

Community

WunderPhotos

Upload Photos

1,962,540 photos uploaded!

WunderBlog® & News

Nearby

Air Quality

  Air Quality AQ Index Pollutant
Not available.

Snow Depth

Station Depth Elevation

Earthquake Activity

City Distance Mag. Time & Date
Minimum magnitude displayed is 2.5.

Coastal Water Temperatures

Place Temperature

Stations

Nearby Weather Stations

Station Location Temp. Windchill Dew Point Humidity Wind Precip. Elev Updated Type
                   

Watches & Warnings

There are currently no watches in effect.